createdAt,value
2023-05-05T00:02:25.205Z,9.39
2023-05-05T00:04:57.683Z,9.68
2023-05-05T00:07:27.515Z,10.01
2023-05-05T00:09:57.356Z,9.39
2023-05-05T00:12:27.179Z,9.54
2023-05-05T00:14:56.992Z,10.11
2023-05-05T00:17:27.032Z,10.37
2023-05-05T00:19:59.914Z,10.44
2023-05-05T00:22:29.627Z,10.71
2023-05-05T00:24:59.444Z,10.47
2023-05-05T00:27:29.275Z,10.42
2023-05-05T00:29:59.118Z,10.03
2023-05-05T00:32:28.902Z,10.67
2023-05-05T00:35:01.470Z,10.89
2023-05-05T00:37:31.771Z,10.41
2023-05-05T00:40:01.638Z,9.94
2023-05-05T00:42:41.221Z,10.08
2023-05-05T00:45:12.234Z,10.18
2023-05-05T00:47:42.556Z,11.03
2023-05-05T00:50:23.403Z,10.19
2023-05-05T00:52:55.516Z,10.21
2023-05-05T00:55:26.280Z,9.23
2023-05-05T00:57:56.212Z,8.88
2023-05-05T01:00:25.926Z,8.90
2023-05-05T01:02:56.125Z,9.49
2023-05-05T01:05:36.135Z,8.85
2023-05-05T01:08:20.268Z,8.45
2023-05-05T01:10:56.692Z,8.67
2023-05-05T01:13:35.197Z,8.64
2023-05-05T01:16:13.677Z,9.28
2023-05-05T01:18:50.437Z,9.43
2023-05-05T01:21:29.130Z,9.10
2023-05-05T01:24:18.561Z,8.83
2023-05-05T01:27:00.609Z,8.89
2023-05-05T01:29:50.366Z,8.63
2023-05-05T01:32:28.574Z,8.15
2023-05-05T01:35:03.308Z,8.22
2023-05-05T01:37:45.660Z,8.28
2023-05-05T01:40:18.367Z,8.09
2023-05-05T01:42:49.170Z,8.15
2023-05-05T01:45:21.117Z,8.45
2023-05-05T01:47:56.109Z,8.09
2023-05-05T01:50:27.474Z,8.03
2023-05-05T01:52:58.156Z,8.01
2023-05-05T01:55:31.129Z,8.26
2023-05-05T01:58:04.186Z,8.10
2023-05-05T02:00:34.761Z,8.25
2023-05-05T02:03:08.668Z,8.34
2023-05-05T02:05:41.427Z,8.38
2023-05-05T02:08:13.474Z,8.25
2023-05-05T02:10:43.724Z,8.22
2023-05-05T02:13:16.992Z,7.90
2023-05-05T02:15:47.703Z,7.88
2023-05-05T02:18:21.416Z,8.09
2023-05-05T02:20:51.407Z,8.44
2023-05-05T02:23:21.552Z,7.87
2023-05-05T02:25:53.984Z,7.63
2023-05-05T02:28:31.409Z,7.49
2023-05-05T02:31:05.617Z,7.72
2023-05-05T02:33:39.519Z,7.97
2023-05-05T02:36:15.421Z,7.71
2023-05-05T02:38:57.306Z,7.44
2023-05-05T02:41:31.914Z,7.22
2023-05-05T02:44:07.195Z,7.11
2023-05-05T02:46:40.192Z,7.31
2023-05-05T02:49:12.476Z,7.63
2023-05-05T02:51:42.952Z,7.76
2023-05-05T02:54:21.919Z,7.38
2023-05-05T02:56:53.762Z,7.47
2023-05-05T02:59:33.707Z,7.43
2023-05-05T03:02:17.990Z,7.18
2023-05-05T03:04:54.494Z,7.39
2023-05-05T03:07:29.293Z,7.26
2023-05-05T03:10:03.372Z,7.03
2023-05-05T03:12:41.288Z,7.31
2023-05-05T03:15:18.839Z,7.27
2023-05-05T03:17:50.167Z,7.02
2023-05-05T03:20:24.168Z,6.94
2023-05-05T03:22:54.998Z,6.68
2023-05-05T03:25:25.095Z,6.70
2023-05-05T03:27:54.856Z,6.67
2023-05-05T03:30:25.408Z,6.77
2023-05-05T03:32:55.297Z,6.98
2023-05-05T03:35:28.173Z,7.38
2023-05-05T03:37:58.310Z,6.88
2023-05-05T03:40:40.302Z,6.94
2023-05-05T03:43:13.567Z,6.68
2023-05-05T03:45:43.279Z,6.51
2023-05-05T03:48:13.619Z,6.72
2023-05-05T03:50:51.250Z,6.62
2023-05-05T03:53:23.289Z,6.66
2023-05-05T03:55:53.404Z,6.88
2023-05-05T03:58:23.122Z,6.92
2023-05-05T04:00:52.973Z,6.96
2023-05-05T04:03:23.742Z,6.98
2023-05-05T04:05:56.144Z,7.15
2023-05-05T04:08:25.892Z,7.07
2023-05-05T04:10:57.571Z,7.14
2023-05-05T04:13:27.388Z,7.21
2023-05-05T04:15:59.166Z,7.44
2023-05-05T04:18:29.620Z,7.79
2023-05-05T04:21:01.970Z,8.01
2023-05-05T04:23:31.794Z,8.16
2023-05-05T04:26:02.235Z,9.26
2023-05-05T04:28:32.027Z,9.87
2023-05-05T04:31:05.258Z,9.54
2023-05-05T04:33:38.589Z,9.44
2023-05-05T04:36:11.955Z,9.22
2023-05-05T04:38:41.792Z,8.82
2023-05-05T04:41:12.051Z,9.25
2023-05-05T04:43:44.376Z,9.54
2023-05-05T04:46:14.712Z,8.96
2023-05-05T04:48:44.696Z,9.17
2023-05-05T04:51:17.230Z,8.77
2023-05-05T04:53:47.017Z,9.22
2023-05-05T04:56:16.684Z,9.47
2023-05-05T04:58:46.714Z,9.70
2023-05-05T05:01:16.642Z,10.36
2023-05-05T05:03:46.697Z,10.07
2023-05-05T05:06:19.184Z,10.76
2023-05-05T05:08:48.923Z,11.64
2023-05-05T05:11:18.596Z,12.16
2023-05-05T05:13:48.327Z,11.51
2023-05-05T05:16:18.090Z,12.10
2023-05-05T05:18:47.977Z,12.48
2023-05-05T05:21:20.562Z,13.35
2023-05-05T05:23:50.269Z,13.95
2023-05-05T05:26:20.108Z,14.43
2023-05-05T05:28:50.261Z,13.53
2023-05-05T05:31:20.057Z,14.14
2023-05-05T05:33:49.845Z,12.71
2023-05-05T05:36:22.236Z,13.36
2023-05-05T05:38:52.267Z,12.84
2023-05-05T05:41:22.275Z,12.23
2023-05-05T05:43:52.007Z,12.20
2023-05-05T05:46:22.268Z,10.74
2023-05-05T05:48:52.098Z,12.46
2023-05-05T05:51:26.059Z,12.69
2023-05-05T05:53:58.209Z,12.75
2023-05-05T05:56:28.652Z,12.06
2023-05-05T05:58:58.649Z,12.30
2023-05-05T06:01:28.580Z,12.27
2023-05-05T06:03:58.534Z,12.55
2023-05-05T06:06:31.720Z,11.19
2023-05-05T06:09:01.462Z,12.22
2023-05-05T06:11:32.193Z,12.08
2023-05-05T06:14:02.871Z,11.18
2023-05-05T06:16:32.722Z,10.80
2023-05-05T06:19:09.651Z,10.26
2023-05-05T06:21:42.715Z,10.86
2023-05-05T06:24:12.403Z,11.22
2023-05-05T06:26:42.384Z,11.12
2023-05-05T06:29:12.409Z,11.47
2023-05-05T06:31:42.270Z,12.30
2023-05-05T06:34:12.370Z,11.94
2023-05-05T06:36:44.756Z,12.87
2023-05-05T06:39:16.073Z,12.55
2023-05-05T06:41:45.908Z,13.11
2023-05-05T06:44:15.683Z,13.16
2023-05-05T06:46:45.704Z,13.47
2023-05-05T06:49:15.436Z,13.46
2023-05-05T06:51:47.713Z,13.47
2023-05-05T06:54:18.008Z,13.74
2023-05-05T06:56:47.696Z,12.59
2023-05-05T06:59:17.334Z,12.22
2023-05-05T07:01:47.100Z,12.27
2023-05-05T07:04:17.288Z,12.32
2023-05-05T07:06:49.638Z,12.83
2023-05-05T07:09:20.454Z,12.80
2023-05-05T07:11:50.162Z,12.78
2023-05-05T07:14:21.541Z,13.13
2023-05-05T07:16:53.588Z,13.26
2023-05-05T07:19:23.716Z,12.80
2023-05-05T07:21:56.087Z,12.99
2023-05-05T07:24:26.566Z,13.53
2023-05-05T07:26:56.302Z,14.09
2023-05-05T07:29:25.989Z,14.24
2023-05-05T07:31:55.714Z,15.07
2023-05-05T07:34:25.678Z,15.43
2023-05-05T07:36:58.673Z,14.69
2023-05-05T07:39:28.425Z,13.96
2023-05-05T07:41:58.155Z,14.67
2023-05-05T07:44:28.367Z,16.15
2023-05-05T07:46:58.770Z,15.11
2023-05-05T07:49:29.430Z,14.40
2023-05-05T07:52:01.738Z,15.13
2023-05-05T07:54:31.454Z,15.16
2023-05-05T07:57:02.291Z,15.86
2023-05-05T07:59:32.028Z,15.69
2023-05-05T08:02:01.700Z,16.79
2023-05-05T08:04:31.578Z,17.59
2023-05-05T08:07:03.905Z,16.93
2023-05-05T08:09:33.586Z,16.07
2023-05-05T08:12:03.504Z,16.24
2023-05-05T08:14:33.932Z,16.96
2023-05-05T08:17:03.663Z,16.14
2023-05-05T08:19:35.218Z,16.25
2023-05-05T08:22:07.528Z,15.78
2023-05-05T08:24:37.171Z,15.99
2023-05-05T08:27:07.157Z,16.05
2023-05-05T08:29:37.001Z,15.76
2023-05-05T08:32:06.811Z,16.41
2023-05-05T08:34:36.525Z,16.41
2023-05-05T08:37:08.748Z,16.51
2023-05-05T08:39:38.543Z,16.86
2023-05-05T08:42:08.341Z,16.42
2023-05-05T08:44:38.059Z,15.97
2023-05-05T08:47:08.610Z,16.66
2023-05-05T08:49:46.848Z,16.85
2023-05-05T08:52:25.474Z,17.12
2023-05-05T08:54:59.611Z,17.22
2023-05-05T08:57:35.762Z,17.18
2023-05-05T09:00:06.760Z,16.58
2023-05-05T09:02:37.569Z,16.99
2023-05-05T09:05:09.689Z,16.84
2023-05-05T09:07:44.184Z,17.35
2023-05-05T09:10:15.162Z,17.58
2023-05-05T09:12:45.095Z,17.27
2023-05-05T09:15:17.294Z,17.18
2023-05-05T09:17:47.216Z,17.52
2023-05-05T09:20:17.666Z,17.58
2023-05-05T09:22:50.924Z,18.36
2023-05-05T09:25:21.203Z,18.63
2023-05-05T09:27:52.346Z,17.75
2023-05-05T09:30:27.546Z,17.61
2023-05-05T09:32:58.194Z,17.51
2023-05-05T09:35:28.534Z,17.60
2023-05-05T09:38:13.428Z,17.83
2023-05-05T09:40:48.277Z,18.06
2023-05-05T09:43:18.365Z,17.83
2023-05-05T09:45:49.012Z,18.01
2023-05-05T09:48:28.680Z,18.05
2023-05-05T09:50:59.573Z,18.69
2023-05-05T09:53:42.008Z,19.15
2023-05-05T09:56:12.392Z,18.79
2023-05-05T09:58:42.237Z,18.47
2023-05-05T10:01:25.391Z,18.80
2023-05-05T10:03:55.231Z,19.53
2023-05-05T10:06:42.639Z,18.98
2023-05-05T10:09:15.199Z,19.50
2023-05-05T10:11:46.222Z,19.16
2023-05-05T10:14:17.804Z,19.69
2023-05-05T10:16:51.714Z,19.21
2023-05-05T10:19:24.386Z,19.58
2023-05-05T10:21:55.953Z,19.06
2023-05-05T10:24:38.613Z,20.15
2023-05-05T10:27:18.116Z,20.39
2023-05-05T10:29:55.045Z,19.69
2023-05-05T10:32:51.914Z,19.60
2023-05-05T10:35:23.574Z,20.31
2023-05-05T10:37:53.690Z,19.26
2023-05-05T10:40:27.079Z,19.95
2023-05-05T10:42:57.816Z,19.90
2023-05-05T10:45:27.782Z,19.48
2023-05-05T10:48:01.501Z,19.57
2023-05-05T10:50:35.870Z,20.11
2023-05-05T10:53:13.865Z,19.52
2023-05-05T10:55:54.903Z,19.72
2023-05-05T10:58:51.056Z,20.29
2023-05-05T11:01:34.352Z,20.23
2023-05-05T11:04:20.424Z,20.29
2023-05-05T11:07:20.381Z,20.56
2023-05-05T11:10:01.793Z,20.38
2023-05-05T11:12:37.438Z,20.54
2023-05-05T11:15:40.321Z,20.77
2023-05-05T11:18:10.066Z,20.93
2023-05-05T11:21:19.390Z,21.05
2023-05-05T11:23:51.948Z,20.60
2023-05-05T11:26:54.120Z,20.58
2023-05-05T11:29:26.442Z,20.68
2023-05-05T11:32:14.333Z,21.16
2023-05-05T11:34:51.962Z,20.36
2023-05-05T11:37:25.797Z,20.15
2023-05-05T11:40:06.622Z,19.65
2023-05-05T11:42:36.762Z,19.63
2023-05-05T11:45:25.238Z,18.37
2023-05-05T11:47:55.071Z,17.87
2023-05-05T11:50:24.792Z,18.50
2023-05-05T11:52:54.454Z,18.66
2023-05-05T11:55:25.889Z,19.52
2023-05-05T11:57:55.909Z,19.65
2023-05-05T12:00:37.397Z,19.43
2023-05-05T12:03:07.468Z,19.37
2023-05-05T12:05:37.612Z,19.64
2023-05-05T12:08:07.950Z,19.93
2023-05-05T12:10:37.899Z,19.99
2023-05-05T12:13:07.739Z,19.86
2023-05-05T12:15:40.024Z,19.79
2023-05-05T12:18:20.868Z,19.82
2023-05-05T12:20:51.385Z,20.13
2023-05-05T12:23:21.182Z,20.41
2023-05-05T12:25:51.071Z,20.75
2023-05-05T12:28:20.877Z,20.69
2023-05-05T12:31:01.576Z,20.89
2023-05-05T12:33:31.727Z,20.66
2023-05-05T12:36:01.685Z,20.75
2023-05-05T12:38:31.372Z,20.33
2023-05-05T12:41:01.267Z,20.39
2023-05-05T12:43:32.896Z,20.51
2023-05-05T12:46:15.250Z,20.71
2023-05-05T12:48:48.352Z,20.62
2023-05-05T12:51:23.604Z,20.63
2023-05-05T12:54:05.180Z,21.19
2023-05-05T12:56:36.241Z,21.00
2023-05-05T12:59:07.799Z,20.59
2023-05-05T13:01:53.885Z,21.03
2023-05-05T13:04:25.933Z,20.39
2023-05-05T13:07:12.568Z,20.58
2023-05-05T13:09:43.012Z,20.60
2023-05-05T13:12:13.317Z,20.70
2023-05-05T13:14:43.683Z,20.84
2023-05-05T13:17:17.150Z,20.64
2023-05-05T13:19:48.936Z,20.55
2023-05-05T13:22:19.778Z,20.41
2023-05-05T13:24:52.308Z,20.43
2023-05-05T13:27:37.958Z,20.00
2023-05-05T13:30:09.027Z,20.51
2023-05-05T13:32:41.508Z,20.67
2023-05-05T13:35:14.695Z,21.02
2023-05-05T13:37:47.291Z,21.06
2023-05-05T13:40:17.250Z,21.92
2023-05-05T13:42:47.084Z,20.87
2023-05-05T13:45:19.806Z,21.53
2023-05-05T13:47:52.223Z,21.03
2023-05-05T13:50:21.966Z,20.58
2023-05-05T13:52:52.228Z,21.68
2023-05-05T13:55:22.330Z,21.70
2023-05-05T13:57:52.084Z,21.94
2023-05-05T14:00:22.729Z,22.05
2023-05-05T14:02:55.195Z,21.53
2023-05-05T14:05:25.130Z,21.23
2023-05-05T14:07:55.511Z,21.71
2023-05-05T14:10:26.361Z,20.89
2023-05-05T14:12:56.333Z,20.62
2023-05-05T14:15:26.086Z,20.90
2023-05-05T14:17:59.876Z,21.67
2023-05-05T14:20:29.802Z,21.49
2023-05-05T14:22:59.690Z,21.75
2023-05-05T14:25:29.489Z,20.87
2023-05-05T14:28:01.805Z,20.75
2023-05-05T14:30:31.472Z,20.86
2023-05-05T14:33:04.294Z,21.20
2023-05-05T14:35:34.330Z,21.14
2023-05-05T14:38:04.039Z,20.90
2023-05-05T14:40:33.700Z,21.33
2023-05-05T14:43:03.433Z,21.27
2023-05-05T14:45:34.268Z,20.86
2023-05-05T14:48:07.014Z,21.19
2023-05-05T14:50:36.733Z,20.78
2023-05-05T14:53:06.443Z,20.48
2023-05-05T14:55:36.205Z,20.15
2023-05-05T14:58:05.908Z,20.22
2023-05-05T15:00:35.681Z,20.39
2023-05-05T15:03:08.428Z,20.09
2023-05-05T15:05:38.202Z,20.40
2023-05-05T15:08:08.440Z,20.22
2023-05-05T15:10:38.257Z,20.27
2023-05-05T15:13:08.046Z,20.44
2023-05-05T15:15:37.809Z,20.74
2023-05-05T15:18:10.451Z,20.56
2023-05-05T15:20:40.376Z,20.94
2023-05-05T15:23:10.118Z,20.72
2023-05-05T15:25:39.827Z,20.65
2023-05-05T15:28:09.539Z,20.53
2023-05-05T15:30:39.194Z,21.01
2023-05-05T15:33:12.059Z,21.15
2023-05-05T15:35:41.808Z,21.13
2023-05-05T15:38:11.917Z,21.47
2023-05-05T15:40:41.622Z,21.01
2023-05-05T15:43:11.298Z,21.11
2023-05-05T15:45:41.792Z,20.93
2023-05-05T15:48:14.318Z,20.90
2023-05-05T15:50:46.795Z,20.41
2023-05-05T15:53:16.781Z,20.81
2023-05-05T15:55:47.000Z,20.72
2023-05-05T15:58:16.809Z,20.78
2023-05-05T16:00:46.524Z,20.69
2023-05-05T16:03:19.158Z,20.93
2023-05-05T16:05:49.533Z,20.76
2023-05-05T16:08:19.465Z,20.60
2023-05-05T16:10:49.132Z,20.22
2023-05-05T16:13:18.971Z,19.92
2023-05-05T16:15:48.748Z,20.08
2023-05-05T16:18:22.339Z,19.66
2023-05-05T16:20:51.977Z,20.05
2023-05-05T16:23:21.712Z,20.52
2023-05-05T16:25:51.674Z,20.40
2023-05-05T16:28:21.504Z,19.91
2023-05-05T16:30:51.312Z,20.77
2023-05-05T16:33:23.617Z,20.77
2023-05-05T16:35:53.325Z,20.33
2023-05-05T16:38:23.059Z,20.75
2023-05-05T16:40:52.930Z,20.35
2023-05-05T16:43:22.762Z,19.89
2023-05-05T16:45:52.503Z,20.04
2023-05-05T16:48:24.883Z,20.29
2023-05-05T16:50:54.673Z,19.87
2023-05-05T16:53:24.572Z,19.39
2023-05-05T16:55:55.824Z,18.99
2023-05-05T16:58:25.800Z,18.25
2023-05-05T17:00:55.825Z,18.73
2023-05-05T17:03:28.171Z,18.22
2023-05-05T17:05:58.035Z,18.31
2023-05-05T17:08:27.845Z,18.44
2023-05-05T17:10:57.672Z,18.67
2023-05-05T17:13:27.481Z,18.58
2023-05-05T17:15:57.810Z,18.44
2023-05-05T17:18:30.181Z,18.04
2023-05-05T17:21:00.039Z,17.88
2023-05-05T17:23:30.097Z,17.85
2023-05-05T17:26:01.042Z,18.14
2023-05-05T17:28:30.827Z,18.24
2023-05-05T17:31:01.720Z,18.09
2023-05-05T17:33:34.257Z,18.57
2023-05-05T17:36:04.029Z,18.28
2023-05-05T17:38:33.875Z,17.75
2023-05-05T17:41:03.682Z,17.52
2023-05-05T17:43:33.618Z,17.53
2023-05-05T17:46:03.486Z,17.70
2023-05-05T17:48:36.018Z,17.12
2023-05-05T17:51:05.787Z,16.76
2023-05-05T17:53:35.817Z,16.90
2023-05-05T17:56:07.264Z,16.90
2023-05-05T17:58:38.730Z,16.82
2023-05-05T18:01:08.540Z,16.48
2023-05-05T18:03:41.242Z,16.29
2023-05-05T18:06:11.042Z,16.44
2023-05-05T18:08:40.815Z,16.53
2023-05-05T18:11:10.645Z,16.01
2023-05-05T18:13:40.518Z,16.03
2023-05-05T18:16:10.358Z,16.31
2023-05-05T18:18:43.631Z,16.17
2023-05-05T18:21:13.710Z,16.11
2023-05-05T18:23:43.538Z,16.20
2023-05-05T18:26:13.562Z,15.95
2023-05-05T18:28:43.330Z,16.18
2023-05-05T18:31:13.125Z,16.13
2023-05-05T18:33:47.673Z,16.14
2023-05-05T18:36:17.888Z,16.07
2023-05-05T18:38:47.860Z,16.05
2023-05-05T18:41:18.130Z,16.26
2023-05-05T18:43:48.108Z,16.30
2023-05-05T18:46:19.482Z,16.09
2023-05-05T18:48:52.084Z,16.08
2023-05-05T18:51:21.983Z,16.05
2023-05-05T18:53:51.940Z,16.23
2023-05-05T18:56:21.857Z,15.74
2023-05-05T18:58:51.711Z,15.59
2023-05-05T19:01:21.734Z,15.79
2023-05-05T19:03:54.402Z,15.89
2023-05-05T19:06:24.493Z,15.85
2023-05-05T19:08:55.566Z,16.14
2023-05-05T19:11:25.824Z,16.12
2023-05-05T19:13:56.434Z,16.16
2023-05-05T19:16:27.763Z,16.40
2023-05-05T19:19:01.428Z,16.63
2023-05-05T19:21:31.790Z,16.01
2023-05-05T19:24:01.663Z,16.36
2023-05-05T19:26:31.947Z,15.91
2023-05-05T19:29:02.279Z,15.73
2023-05-05T19:31:32.213Z,15.66
2023-05-05T19:34:06.405Z,16.23
2023-05-05T19:36:37.125Z,16.33
2023-05-05T19:39:07.607Z,15.89
2023-05-05T19:41:37.994Z,15.45
2023-05-05T19:44:08.027Z,15.32
2023-05-05T19:46:37.914Z,15.16
2023-05-05T19:49:10.441Z,15.77
2023-05-05T19:51:42.154Z,15.61
2023-05-05T19:54:12.164Z,14.92
2023-05-05T19:56:42.177Z,15.46
2023-05-05T19:59:11.987Z,15.14
2023-05-05T20:01:41.862Z,15.06
2023-05-05T20:04:14.371Z,15.70
2023-05-05T20:06:44.628Z,15.18
2023-05-05T20:09:14.964Z,15.37
2023-05-05T20:11:44.933Z,15.16
2023-05-05T20:14:17.104Z,14.65
2023-05-05T20:16:46.868Z,14.56
2023-05-05T20:19:19.431Z,14.68
2023-05-05T20:21:49.384Z,14.48
2023-05-05T20:24:19.729Z,14.61
2023-05-05T20:26:50.471Z,14.69
2023-05-05T20:29:20.452Z,15.05
2023-05-05T20:31:50.398Z,15.30
2023-05-05T20:34:25.210Z,15.97
2023-05-05T20:36:55.368Z,15.87
2023-05-05T20:39:25.351Z,15.78
2023-05-05T20:41:55.245Z,16.25
2023-05-05T20:44:24.981Z,16.36
2023-05-05T20:46:54.795Z,15.73
2023-05-05T20:49:27.229Z,15.83
2023-05-05T20:51:57.227Z,15.37
2023-05-05T20:54:26.996Z,15.20
2023-05-05T20:56:58.554Z,14.57
2023-05-05T20:59:28.746Z,15.39
2023-05-05T21:01:59.639Z,15.03
2023-05-05T21:04:32.185Z,14.73
2023-05-05T21:07:02.072Z,15.77
2023-05-05T21:09:31.918Z,15.09
2023-05-05T21:12:02.381Z,14.57
2023-05-05T21:14:32.416Z,14.31
2023-05-05T21:17:02.350Z,14.40
2023-05-05T21:19:34.753Z,14.37
2023-05-05T21:22:04.654Z,14.35
2023-05-05T21:24:34.566Z,14.92
2023-05-05T21:27:04.447Z,15.52
2023-05-05T21:29:37.722Z,14.65
2023-05-05T21:32:07.784Z,15.46
2023-05-05T21:34:40.818Z,15.43
2023-05-05T21:37:12.186Z,15.33
2023-05-05T21:39:41.933Z,15.14
2023-05-05T21:42:11.814Z,14.95
2023-05-05T21:44:41.551Z,14.89
2023-05-05T21:47:12.685Z,14.87
2023-05-05T21:49:45.045Z,14.99
2023-05-05T21:52:14.861Z,14.74
2023-05-05T21:54:44.606Z,14.22
2023-05-05T21:57:14.370Z,14.32
2023-05-05T21:59:44.065Z,14.71
2023-05-05T22:02:13.832Z,15.49
2023-05-05T22:04:48.640Z,15.62
2023-05-05T22:07:37.196Z,15.42
2023-05-05T22:10:27.671Z,15.24
2023-05-05T22:12:58.195Z,15.01
2023-05-05T22:15:32.863Z,14.81
2023-05-05T22:18:08.877Z,14.95
2023-05-05T22:20:41.594Z,14.79
2023-05-05T22:23:11.378Z,14.41
2023-05-05T22:25:41.295Z,14.38
2023-05-05T22:28:10.971Z,14.76
2023-05-05T22:30:40.808Z,14.92
2023-05-05T22:33:11.053Z,14.43
2023-05-05T22:35:43.359Z,14.74
2023-05-05T22:38:13.102Z,14.71
2023-05-05T22:40:42.856Z,14.85
2023-05-05T22:43:12.563Z,14.81
2023-05-05T22:45:42.325Z,14.96
2023-05-05T22:48:12.093Z,14.71
2023-05-05T22:50:44.448Z,15.07
2023-05-05T22:53:14.122Z,15.06
2023-05-05T22:55:43.986Z,14.99
2023-05-05T22:58:13.672Z,15.32
2023-05-05T23:00:43.365Z,15.38
2023-05-05T23:03:14.714Z,15.48
2023-05-05T23:05:47.046Z,14.47
2023-05-05T23:08:16.731Z,14.62
2023-05-05T23:10:46.535Z,14.34
2023-05-05T23:13:16.335Z,14.62
2023-05-05T23:15:46.020Z,15.06
2023-05-05T23:18:15.862Z,15.46
2023-05-05T23:20:48.202Z,15.34
2023-05-05T23:23:17.877Z,14.47
2023-05-05T23:25:47.818Z,14.28
2023-05-05T23:28:17.622Z,14.17
2023-05-05T23:30:47.346Z,14.63
2023-05-05T23:33:17.090Z,14.89
2023-05-05T23:35:49.644Z,15.29
2023-05-05T23:38:19.426Z,14.92
2023-05-05T23:40:49.274Z,14.37
2023-05-05T23:43:18.989Z,14.22
2023-05-05T23:45:48.774Z,14.47
2023-05-05T23:48:18.501Z,14.55
2023-05-05T23:50:50.768Z,15.24
2023-05-05T23:53:20.458Z,15.75
2023-05-05T23:55:50.165Z,14.72
2023-05-05T23:58:19.845Z,14.40
